createdAt,value
2023-03-10T00:01:20.883Z,94646.31
2023-03-10T00:03:50.946Z,94643.97
2023-03-10T00:06:22.370Z,94633.41
2023-03-10T00:08:50.671Z,94617.59
2023-03-10T00:11:19.562Z,94609.44
2023-03-10T00:13:47.892Z,94605.19
2023-03-10T00:16:20.917Z,94603.38
2023-03-10T00:18:50.829Z,94593.09
2023-03-10T00:21:21.836Z,94581.75
2023-03-10T00:23:49.967Z,94592.00
2023-03-10T00:26:21.386Z,94580.69
2023-03-10T00:28:51.074Z,94571.47
2023-03-10T00:31:21.687Z,94565.41
2023-03-10T00:33:52.783Z,94573.06
2023-03-10T00:36:24.019Z,94565.16
2023-03-10T00:38:53.576Z,94569.63
2023-03-10T00:41:24.621Z,94554.09
2023-03-10T00:43:52.862Z,94565.94
2023-03-10T00:46:21.450Z,94558.31
2023-03-10T00:48:50.996Z,94559.38
2023-03-10T00:51:20.410Z,94563.28
2023-03-10T00:53:49.554Z,94569.09
2023-03-10T00:56:21.308Z,94554.06
2023-03-10T00:58:54.042Z,94564.09
2023-03-10T01:01:25.476Z,94556.72
2023-03-10T01:03:57.599Z,94550.91
2023-03-10T01:06:26.781Z,94552.78
2023-03-10T01:08:55.402Z,94548.28
2023-03-10T01:11:27.525Z,94550.91
2023-03-10T01:13:58.264Z,94538.78
2023-03-10T01:16:27.547Z,94544.06
2023-03-10T01:18:58.728Z,94532.50
2023-03-10T01:21:31.774Z,94530.88
2023-03-10T01:24:00.850Z,94532.47
2023-03-10T01:26:30.087Z,94530.63
2023-03-10T01:28:58.237Z,94518.25
2023-03-10T01:31:26.554Z,94517.72
2023-03-10T01:33:54.988Z,94513.50
2023-03-10T01:36:27.594Z,94510.88
2023-03-10T01:38:57.083Z,94528.00
2023-03-10T01:41:25.819Z,94520.38
2023-03-10T01:43:56.106Z,94518.25
2023-03-10T01:46:46.736Z,94523.81
2023-03-10T01:49:32.094Z,94498.50
2023-03-10T01:52:08.096Z,94501.16
2023-03-10T01:54:46.351Z,94511.16
2023-03-10T01:57:16.752Z,94503.25
2023-03-10T01:59:45.507Z,94490.59
2023-03-10T02:02:14.064Z,94482.97
2023-03-10T02:04:48.570Z,94479.03
2023-03-10T02:07:28.868Z,94476.91
2023-03-10T02:09:57.706Z,94475.56
2023-03-10T02:12:26.164Z,94472.16
2023-03-10T02:14:55.207Z,94475.59
2023-03-10T02:17:28.394Z,94469.53
2023-03-10T02:20:27.224Z,94465.59
2023-03-10T02:22:57.002Z,94470.84
2023-03-10T02:25:40.035Z,94460.31
2023-03-10T02:28:09.898Z,94467.44
2023-03-10T02:30:41.636Z,94467.44
2023-03-10T02:33:14.713Z,94466.41
2023-03-10T02:35:42.903Z,94463.19
2023-03-10T02:38:14.970Z,94462.16
2023-03-10T02:40:47.089Z,94452.94
2023-03-10T02:43:31.493Z,94442.69
2023-03-10T02:46:14.591Z,94451.66
2023-03-10T02:48:44.868Z,94437.13
2023-03-10T02:51:25.478Z,94432.16
2023-03-10T02:53:55.006Z,94434.25
2023-03-10T02:56:24.552Z,94425.81
2023-03-10T02:58:54.238Z,94436.09
2023-03-10T03:01:22.401Z,94430.31
2023-03-10T03:03:50.680Z,94433.47
2023-03-10T03:06:18.794Z,94437.44
2023-03-10T03:08:47.528Z,94438.47
2023-03-10T03:11:19.042Z,94435.59
2023-03-10T03:13:47.322Z,94425.31
2023-03-10T03:16:16.942Z,94425.03
2023-03-10T03:18:46.863Z,94431.63
2023-03-10T03:21:18.579Z,94432.66
2023-03-10T03:23:48.691Z,94423.19
2023-03-10T03:26:21.831Z,94416.31
2023-03-10T03:28:52.202Z,94410.81
2023-03-10T03:31:27.235Z,94405.28
2023-03-10T03:34:16.826Z,94382.34
2023-03-10T03:36:46.699Z,94375.50
2023-03-10T03:39:17.828Z,94374.69
2023-03-10T03:41:53.136Z,94376.03
2023-03-10T03:44:21.926Z,94381.03
2023-03-10T03:46:52.619Z,94384.97
2023-03-10T03:49:21.945Z,94389.97
2023-03-10T03:51:50.653Z,94369.94
2023-03-10T03:54:19.213Z,94383.38
2023-03-10T03:56:47.862Z,94372.38
2023-03-10T03:59:17.314Z,94370.53
2023-03-10T04:01:45.794Z,94366.81
2023-03-10T04:04:16.465Z,94369.47
2023-03-10T04:06:44.758Z,94375.28
2023-03-10T04:09:13.751Z,94366.59
2023-03-10T04:11:42.021Z,94353.41
2023-03-10T04:14:10.384Z,94351.28
2023-03-10T04:16:38.510Z,94345.00
2023-03-10T04:19:08.032Z,94362.09
2023-03-10T04:21:41.759Z,94368.97
2023-03-10T04:24:10.278Z,94371.06
2023-03-10T04:26:38.521Z,94370.81
2023-03-10T04:29:07.103Z,94370.03
2023-03-10T04:31:38.047Z,94374.25
2023-03-10T04:34:08.059Z,94378.19
2023-03-10T04:36:36.381Z,94377.41
2023-03-10T04:39:07.459Z,94375.31
2023-03-10T04:41:35.728Z,94370.81
2023-03-10T04:44:04.028Z,94368.19
2023-03-10T04:46:33.828Z,94373.44
2023-03-10T04:49:03.209Z,94364.75
2023-03-10T04:51:31.373Z,94374.75
2023-03-10T04:54:00.279Z,94335.00
2023-03-10T04:56:32.659Z,94329.78
2023-03-10T04:59:00.770Z,94331.06
2023-03-10T05:01:32.909Z,94322.09
2023-03-10T05:04:05.775Z,94331.06
2023-03-10T05:06:35.368Z,94338.44
2023-03-10T05:09:10.315Z,94335.31
2023-03-10T05:11:39.804Z,94324.75
2023-03-10T05:14:07.845Z,94324.22
2023-03-10T05:16:36.026Z,94324.25
2023-03-10T05:19:04.311Z,94317.38
2023-03-10T05:21:35.619Z,94313.47
2023-03-10T05:24:05.753Z,94309.53
2023-03-10T05:26:34.966Z,94307.16
2023-03-10T05:29:05.100Z,94311.66
2023-03-10T05:31:45.011Z,94308.25
2023-03-10T05:34:19.157Z,94310.56
2023-03-10T05:36:49.202Z,94319.03
2023-03-10T05:39:18.407Z,94327.41
2023-03-10T05:41:50.473Z,94324.78
2023-03-10T05:44:20.142Z,94322.16
2023-03-10T05:46:48.212Z,94323.75
2023-03-10T05:49:16.749Z,94325.56
2023-03-10T05:51:45.760Z,94316.06
2023-03-10T05:54:16.172Z,94314.00
2023-03-10T05:56:44.656Z,94306.66
2023-03-10T05:59:12.697Z,94304.53
2023-03-10T06:01:42.378Z,94302.69
2023-03-10T06:04:13.417Z,94303.97
2023-03-10T06:06:41.797Z,94292.66
2023-03-10T06:09:09.884Z,94296.34
2023-03-10T06:11:38.298Z,94295.31
2023-03-10T06:14:06.925Z,94278.19
2023-03-10T06:16:35.682Z,94276.59
2023-03-10T06:19:05.150Z,94258.91
2023-03-10T06:21:35.501Z,94244.94
2023-03-10T06:24:04.092Z,94236.25
2023-03-10T06:26:32.282Z,94213.63
2023-03-10T06:29:00.402Z,94192.28
2023-03-10T06:31:29.738Z,94206.81
2023-03-10T06:33:59.031Z,94212.63
2023-03-10T06:36:31.729Z,94230.50
2023-03-10T06:39:00.137Z,94231.09
2023-03-10T06:41:28.935Z,94242.72
2023-03-10T06:43:57.021Z,94254.28
2023-03-10T06:46:25.589Z,94251.69
2023-03-10T06:48:53.727Z,94244.81
2023-03-10T06:51:23.800Z,94236.63
2023-03-10T06:53:55.066Z,94236.06
2023-03-10T06:56:23.902Z,94236.34
2023-03-10T06:58:52.260Z,94229.00
2023-03-10T07:01:28.462Z,94233.69
2023-03-10T07:03:57.318Z,94238.69
2023-03-10T07:06:25.931Z,94234.19
2023-03-10T07:08:55.996Z,94233.13
2023-03-10T07:11:26.128Z,94226.25
2023-03-10T07:13:54.891Z,94237.00
2023-03-10T07:16:23.527Z,94229.03
2023-03-10T07:18:51.832Z,94232.38
2023-03-10T07:21:22.540Z,94241.00
2023-03-10T07:23:50.809Z,94242.81
2023-03-10T07:26:23.786Z,94253.84
2023-03-10T07:28:54.248Z,94253.00
2023-03-10T07:31:22.462Z,94256.88
2023-03-10T07:33:50.910Z,94259.75
2023-03-10T07:36:20.675Z,94254.47
2023-03-10T07:38:49.036Z,94241.00
2023-03-10T07:41:21.918Z,94256.81
2023-03-10T07:43:54.272Z,94255.53
2023-03-10T07:46:23.182Z,94254.84
2023-03-10T07:48:52.644Z,94264.63
2023-03-10T07:51:21.086Z,94261.03
2023-03-10T07:53:49.216Z,94252.88
2023-03-10T07:56:17.353Z,94260.34
2023-03-10T07:58:47.002Z,94253.81
2023-03-10T08:01:17.934Z,94261.00
2023-03-10T08:03:46.931Z,94271.16
2023-03-10T08:06:20.728Z,94279.44
2023-03-10T08:08:49.187Z,94298.13
2023-03-10T08:11:18.170Z,94313.94
2023-03-10T08:13:48.389Z,94313.25
2023-03-10T08:16:17.593Z,94315.34
2023-03-10T08:18:46.318Z,94321.66
2023-03-10T08:21:14.557Z,94324.31
2023-03-10T08:23:42.795Z,94330.63
2023-03-10T08:26:15.614Z,94326.69
2023-03-10T08:28:44.350Z,94324.31
2023-03-10T08:31:16.752Z,94329.31
2023-03-10T08:33:45.905Z,94330.91
2023-03-10T08:36:16.949Z,94323.00
2023-03-10T08:38:46.229Z,94314.81
2023-03-10T08:41:17.909Z,94329.56
2023-03-10T08:43:49.109Z,94330.09
2023-03-10T08:46:20.130Z,94325.09
2023-03-10T08:48:48.729Z,94315.88
2023-03-10T08:51:16.931Z,94312.69
2023-03-10T08:53:47.588Z,94310.03
2023-03-10T08:56:17.456Z,94312.34
2023-03-10T08:58:45.782Z,94315.94
2023-03-10T09:01:15.627Z,94324.06
2023-03-10T09:03:46.562Z,94327.16
2023-03-10T09:06:15.184Z,94330.78
2023-03-10T09:08:44.112Z,94331.25
2023-03-10T09:11:18.509Z,94322.00
2023-03-10T09:13:46.738Z,94330.16
2023-03-10T09:16:15.485Z,94335.47
2023-03-10T09:18:45.806Z,94343.91
2023-03-10T09:21:16.326Z,94345.22
2023-03-10T09:23:47.128Z,94356.13
2023-03-10T09:26:16.043Z,94342.47
2023-03-10T09:28:44.930Z,94347.25
2023-03-10T09:31:19.011Z,94346.66
2023-03-10T09:33:49.207Z,94343.06
2023-03-10T09:36:17.593Z,94353.56
2023-03-10T09:38:45.973Z,94355.97
2023-03-10T09:41:46.157Z,94361.25
2023-03-10T09:44:32.446Z,94358.84
2023-03-10T09:47:27.559Z,94356.28
2023-03-10T09:50:17.814Z,94353.38
2023-03-10T09:52:48.868Z,94352.28
2023-03-10T09:55:23.699Z,94349.91
2023-03-10T09:57:57.127Z,94347.19
2023-03-10T10:00:30.773Z,94346.69
2023-03-10T10:03:08.876Z,94353.31
2023-03-10T10:05:43.073Z,94347.50
2023-03-10T10:08:22.523Z,94347.81
2023-03-10T10:10:54.840Z,94341.22
2023-03-10T10:13:27.956Z,94346.22
2023-03-10T10:16:21.382Z,94343.59
2023-03-10T10:19:01.099Z,94337.00
2023-03-10T10:21:43.353Z,94345.69
2023-03-10T10:24:12.233Z,94345.69
2023-03-10T10:26:40.260Z,94337.53
2023-03-10T10:29:18.496Z,94339.06
2023-03-10T10:32:06.572Z,94348.56
2023-03-10T10:34:35.878Z,94345.13
2023-03-10T10:37:29.767Z,94345.75
2023-03-10T10:40:00.240Z,94338.63
2023-03-10T10:42:31.052Z,94348.69
2023-03-10T10:45:02.344Z,94347.13
2023-03-10T10:47:33.292Z,94349.75
2023-03-10T10:50:19.668Z,94344.69
2023-03-10T10:52:52.962Z,94348.44
2023-03-10T10:55:29.740Z,94350.03
2023-03-10T10:58:01.888Z,94349.75
2023-03-10T11:00:33.921Z,94348.72
2023-03-10T11:03:02.463Z,94355.78
2023-03-10T11:05:37.602Z,94353.69
2023-03-10T11:08:37.528Z,94354.72
2023-03-10T11:11:25.395Z,94353.41
2023-03-10T11:14:16.080Z,94361.28
2023-03-10T11:16:53.882Z,94361.53
2023-03-10T11:19:33.018Z,94358.94
2023-03-10T11:22:08.196Z,94360.78
2023-03-10T11:24:47.762Z,94357.31
2023-03-10T11:27:26.578Z,94364.47
2023-03-10T11:30:06.058Z,94372.88
2023-03-10T11:32:48.804Z,94378.94
2023-03-10T11:35:27.272Z,94375.78
2023-03-10T11:38:11.422Z,94372.91
2023-03-10T11:40:47.811Z,94377.69
2023-03-10T11:43:31.562Z,94371.59
2023-03-10T11:46:08.111Z,94376.34
2023-03-10T11:48:56.017Z,94367.38
2023-03-10T11:51:33.649Z,94372.66
2023-03-10T11:54:05.794Z,94368.19
2023-03-10T11:56:35.255Z,94367.44
2023-03-10T11:59:10.801Z,94363.22
2023-03-10T12:01:43.228Z,94359.25
2023-03-10T12:04:17.525Z,94361.38
2023-03-10T12:06:52.132Z,94356.63
2023-03-10T12:09:34.219Z,94352.09
2023-03-10T12:12:06.245Z,94349.22
2023-03-10T12:14:36.665Z,94346.81
2023-03-10T12:17:06.402Z,94353.38
2023-03-10T12:19:56.062Z,94343.66
2023-03-10T12:22:26.081Z,94372.09
2023-03-10T12:24:54.286Z,94351.03
2023-03-10T12:27:23.869Z,94356.50
2023-03-10T12:29:51.958Z,94347.56
2023-03-10T12:32:47.310Z,94356.56
2023-03-10T12:35:47.697Z,94358.66
2023-03-10T12:38:53.908Z,94362.13
2023-03-10T12:41:45.912Z,94361.53
2023-03-10T12:44:55.775Z,94366.50
2023-03-10T12:47:37.369Z,94367.25
2023-03-10T12:50:22.673Z,94365.44
2023-03-10T12:52:59.100Z,94371.78
2023-03-10T12:55:29.081Z,94371.25
2023-03-10T12:58:14.637Z,94364.72
2023-03-10T13:00:51.468Z,94365.75
2023-03-10T13:03:29.001Z,94371.53
2023-03-10T13:06:03.833Z,94366.06
2023-03-10T13:08:42.796Z,94365.00
2023-03-10T13:11:31.696Z,94373.69
2023-03-10T13:14:04.909Z,94385.03
2023-03-10T13:16:36.568Z,94369.50
2023-03-10T13:19:05.615Z,94377.16
2023-03-10T13:21:36.053Z,94379.53
2023-03-10T13:24:20.222Z,94372.94
2023-03-10T13:26:48.381Z,94391.63
2023-03-10T13:29:20.067Z,94383.22
2023-03-10T13:31:56.341Z,94383.75
2023-03-10T13:34:29.254Z,94381.63
2023-03-10T13:37:05.373Z,94368.47
2023-03-10T13:39:33.713Z,94382.16
2023-03-10T13:42:04.038Z,94375.81
2023-03-10T13:44:38.615Z,94388.47
2023-03-10T13:47:18.336Z,94395.56
2023-03-10T13:49:50.827Z,94397.97
2023-03-10T13:52:22.469Z,94398.75
2023-03-10T13:54:51.157Z,94398.50
2023-03-10T13:57:26.257Z,94408.47
2023-03-10T13:59:57.805Z,94404.00
2023-03-10T14:02:31.672Z,94410.06
2023-03-10T14:05:01.431Z,94399.53
2023-03-10T14:07:32.883Z,94401.13
2023-03-10T14:10:20.192Z,94391.91
2023-03-10T14:12:51.708Z,94395.84
2023-03-10T14:15:25.865Z,94409.78
2023-03-10T14:18:20.422Z,94415.84
2023-03-10T14:20:49.329Z,94420.84
2023-03-10T14:23:32.379Z,94436.63
2023-03-10T14:26:00.714Z,94437.94
2023-03-10T14:28:32.341Z,94447.97
2023-03-10T14:31:02.728Z,94454.50
2023-03-10T14:33:32.262Z,94457.44
2023-03-10T14:36:00.422Z,94454.75
2023-03-10T14:38:28.856Z,94455.03
2023-03-10T14:40:57.317Z,94461.59
2023-03-10T14:43:28.696Z,94471.00
2023-03-10T14:46:00.153Z,94481.69
2023-03-10T14:48:35.436Z,94474.09
2023-03-10T14:51:06.311Z,94501.50
2023-03-10T14:53:34.797Z,94496.00
2023-03-10T14:56:04.363Z,94492.50
2023-03-10T14:58:35.604Z,94481.47
2023-03-10T15:01:03.879Z,94486.44
2023-03-10T15:03:33.378Z,94515.09
2023-03-10T15:06:01.771Z,94499.00
2023-03-10T15:08:30.839Z,94506.63
2023-03-10T15:10:59.141Z,94513.94
2023-03-10T15:13:27.215Z,94510.00
2023-03-10T15:15:56.069Z,94533.88
2023-03-10T15:18:26.969Z,94528.28
2023-03-10T15:20:59.012Z,94555.44
2023-03-10T15:23:28.268Z,94579.38
2023-03-10T15:25:57.249Z,94584.97
2023-03-10T15:28:25.561Z,94591.00
2023-03-10T15:30:54.954Z,94595.47
2023-03-10T15:33:23.184Z,94594.22
2023-03-10T15:35:51.306Z,94594.41
2023-03-10T15:38:21.052Z,94597.59
2023-03-10T15:40:49.249Z,94575.06
2023-03-10T15:43:17.330Z,94580.19
2023-03-10T15:45:49.202Z,94561.22
2023-03-10T15:48:18.318Z,94567.16
2023-03-10T15:50:47.903Z,94569.25
2023-03-10T15:53:16.160Z,94572.78
2023-03-10T15:55:45.764Z,94549.22
2023-03-10T15:58:13.912Z,94559.34
2023-03-10T16:00:43.826Z,94586.56
2023-03-10T16:03:12.267Z,94573.13
2023-03-10T16:05:49.081Z,94580.63
2023-03-10T16:08:18.987Z,94590.28
2023-03-10T16:10:54.313Z,94589.72
2023-03-10T16:13:23.773Z,94581.38
2023-03-10T16:15:53.318Z,94579.84
2023-03-10T16:18:25.748Z,94586.50
2023-03-10T16:20:58.531Z,94602.41
2023-03-10T16:23:27.377Z,94609.00
2023-03-10T16:26:13.113Z,94607.78
2023-03-10T16:28:44.349Z,94620.22
2023-03-10T16:31:17.533Z,94620.50
2023-03-10T16:33:47.975Z,94619.31
2023-03-10T16:36:19.076Z,94635.38
2023-03-10T16:38:47.664Z,94658.81
2023-03-10T16:41:17.811Z,94644.78
2023-03-10T16:43:46.397Z,94647.75
2023-03-10T16:46:17.567Z,94661.41
2023-03-10T16:48:48.524Z,94651.53
2023-03-10T16:51:25.589Z,94660.09
2023-03-10T16:53:56.204Z,94666.38
2023-03-10T16:56:27.652Z,94659.94
2023-03-10T16:58:56.795Z,94661.44
2023-03-10T17:01:25.730Z,94664.41
2023-03-10T17:03:54.919Z,94666.16
2023-03-10T17:06:26.667Z,94656.84
2023-03-10T17:08:56.249Z,94655.91
2023-03-10T17:11:28.560Z,94643.97
2023-03-10T17:14:00.060Z,94642.06
2023-03-10T17:16:31.124Z,94641.94
2023-03-10T17:19:01.549Z,94648.63
2023-03-10T17:21:33.281Z,94654.00
2023-03-10T17:24:01.454Z,94659.09
2023-03-10T17:26:31.354Z,94682.25
2023-03-10T17:28:59.561Z,94682.19
2023-03-10T17:31:29.947Z,94696.00
2023-03-10T17:34:00.434Z,94679.25
2023-03-10T17:36:29.812Z,94673.84
2023-03-10T17:39:00.740Z,94651.41
2023-03-10T17:41:31.429Z,94645.66
2023-03-10T17:43:59.907Z,94664.41
2023-03-10T17:46:30.436Z,94669.41
2023-03-10T17:49:00.275Z,94690.53
2023-03-10T17:51:31.670Z,94707.81
2023-03-10T17:54:03.039Z,94722.47
2023-03-10T17:56:33.231Z,94742.25
2023-03-10T17:59:01.547Z,94753.69
2023-03-10T18:01:32.982Z,94764.63
2023-03-10T18:04:02.356Z,94778.50
2023-03-10T18:06:33.535Z,94777.47
2023-03-10T18:09:05.550Z,94782.78
2023-03-10T18:11:36.089Z,94771.06
2023-03-10T18:14:04.779Z,94777.19
2023-03-10T18:16:36.842Z,94783.41
2023-03-10T18:19:05.449Z,94763.38
2023-03-10T18:21:33.809Z,94771.66
2023-03-10T18:24:02.310Z,94774.97
2023-03-10T18:26:31.348Z,94775.69
2023-03-10T18:29:01.510Z,94799.78
2023-03-10T18:31:32.678Z,94809.00
2023-03-10T18:34:03.010Z,94800.09
2023-03-10T18:36:32.952Z,94797.16
2023-03-10T18:39:02.377Z,94826.56
2023-03-10T18:41:32.312Z,94827.19
2023-03-10T18:44:02.013Z,94826.78
2023-03-10T18:46:30.544Z,94857.81
2023-03-10T18:48:58.850Z,94846.44
2023-03-10T18:51:28.781Z,94840.53
2023-03-10T18:53:57.135Z,94822.59
2023-03-10T18:56:28.837Z,94836.44
2023-03-10T18:58:58.064Z,94839.03
2023-03-10T19:01:27.732Z,94850.88
2023-03-10T19:03:55.917Z,94859.72
2023-03-10T19:06:24.287Z,94852.25
2023-03-10T19:08:53.674Z,94858.97
2023-03-10T19:11:24.148Z,94848.84
2023-03-10T19:13:52.906Z,94873.97
2023-03-10T19:16:22.456Z,94848.75
2023-03-10T19:18:51.992Z,94877.38
2023-03-10T19:21:21.969Z,94860.09
2023-03-10T19:23:51.176Z,94906.28
2023-03-10T19:26:19.781Z,94893.59
2023-03-10T19:28:47.910Z,94882.84
2023-03-10T19:31:17.385Z,94883.72
2023-03-10T19:33:45.766Z,94899.88
2023-03-10T19:36:16.478Z,94851.88
2023-03-10T19:38:46.230Z,94872.47
2023-03-10T19:41:16.432Z,94890.53
2023-03-10T19:43:45.547Z,94899.66
2023-03-10T19:46:16.107Z,94921.84
2023-03-10T19:48:44.918Z,94924.44
2023-03-10T19:51:22.251Z,94933.19
2023-03-10T19:53:52.809Z,94947.28
2023-03-10T19:56:22.438Z,94952.78
2023-03-10T19:58:51.230Z,94970.97
2023-03-10T20:01:24.570Z,94995.25
2023-03-10T20:03:53.370Z,95016.06
2023-03-10T20:06:23.766Z,95025.75
2023-03-10T20:08:52.597Z,95042.94
2023-03-10T20:11:23.086Z,95036.69
2023-03-10T20:13:54.840Z,95050.25
2023-03-10T20:16:24.111Z,95054.44
2023-03-10T20:18:53.240Z,95040.13
2023-03-10T20:21:23.218Z,95056.63
2023-03-10T20:23:51.550Z,95081.22
2023-03-10T20:26:20.269Z,95067.63
2023-03-10T20:28:50.604Z,95078.38
2023-03-10T20:31:21.361Z,95065.00
2023-03-10T20:33:50.430Z,95105.69
2023-03-10T20:36:18.604Z,95095.34
2023-03-10T20:38:48.841Z,95139.84
2023-03-10T20:41:19.499Z,95124.63
2023-03-10T20:43:49.099Z,95157.97
2023-03-10T20:46:19.180Z,95135.25
2023-03-10T20:48:49.651Z,95160.97
2023-03-10T20:51:19.372Z,95155.47
2023-03-10T20:53:49.007Z,95174.44
2023-03-10T20:56:17.500Z,95202.00
2023-03-10T20:58:45.693Z,95212.25
2023-03-10T21:01:19.031Z,95212.03
2023-03-10T21:06:20.711Z,95254.38
2023-03-10T21:08:50.674Z,95244.22
2023-03-10T21:11:19.984Z,95253.00
2023-03-10T21:13:48.026Z,95272.59
2023-03-10T21:16:16.125Z,95281.03
2023-03-10T21:18:44.217Z,95307.19
2023-03-10T21:21:13.822Z,95323.59
2023-03-10T21:23:42.980Z,95333.53
2023-03-10T21:26:14.598Z,95338.69
2023-03-10T21:28:43.406Z,95331.06
2023-03-10T21:31:12.113Z,95344.09
2023-03-10T21:33:41.713Z,95340.69
2023-03-10T21:36:14.661Z,95341.75
2023-03-10T21:38:43.227Z,95349.16
2023-03-10T21:41:15.344Z,95344.84
2023-03-10T21:43:43.550Z,95352.91
2023-03-10T21:46:12.233Z,95345.00
2023-03-10T21:48:40.827Z,95341.38
2023-03-10T21:51:09.958Z,95343.03
2023-03-10T21:53:38.130Z,95340.06
2023-03-10T21:56:07.586Z,95331.16
2023-03-10T21:58:37.566Z,95354.31
2023-03-10T22:01:07.681Z,95353.00
2023-03-10T22:03:36.479Z,95359.59
2023-03-10T22:06:05.127Z,95361.63
2023-03-10T22:08:33.625Z,95361.06
2023-03-10T22:11:02.247Z,95369.22
2023-03-10T22:13:30.561Z,95380.84
2023-03-10T22:16:00.939Z,95376.16
2023-03-10T22:18:29.357Z,95386.50
2023-03-10T22:20:57.685Z,95367.34
2023-03-10T22:23:25.727Z,95376.41
2023-03-10T22:25:53.841Z,95384.81
2023-03-10T22:28:22.207Z,95384.25
2023-03-10T22:30:50.374Z,95379.66
2023-03-10T22:33:19.865Z,95391.75
2023-03-10T22:35:52.029Z,95386.50
2023-03-10T22:38:20.922Z,95387.53
2023-03-10T22:40:49.497Z,95425.66
2023-03-10T22:43:18.152Z,95419.28
2023-03-10T22:45:46.725Z,95417.47
2023-03-10T22:48:14.741Z,95420.28
2023-03-10T22:50:46.622Z,95443.56
2023-03-10T22:53:17.464Z,95452.44
2023-03-10T22:55:46.491Z,95450.22
2023-03-10T22:58:16.182Z,95448.41
2023-03-10T23:00:46.240Z,95444.66
2023-03-10T23:03:15.337Z,95434.19
2023-03-10T23:05:45.234Z,95436.38
2023-03-10T23:08:14.484Z,95455.25
2023-03-10T23:10:43.508Z,95439.16
2023-03-10T23:13:15.641Z,95445.16
2023-03-10T23:15:44.835Z,95448.38
2023-03-10T23:18:13.070Z,95467.66
2023-03-10T23:20:47.811Z,95456.16
2023-03-10T23:23:18.178Z,95462.88
2023-03-10T23:25:50.875Z,95478.50
2023-03-10T23:28:21.632Z,95458.44
2023-03-10T23:30:51.291Z,95465.28
2023-03-10T23:33:21.591Z,95462.47
2023-03-10T23:35:54.102Z,95462.91
2023-03-10T23:38:24.572Z,95458.28
2023-03-10T23:40:53.586Z,95456.09
2023-03-10T23:43:21.663Z,95453.91
2023-03-10T23:45:49.965Z,95468.94
2023-03-10T23:48:19.848Z,95466.09
2023-03-10T23:50:50.285Z,95466.34
2023-03-10T23:53:20.622Z,95475.34
2023-03-10T23:55:49.218Z,95474.16
2023-03-10T23:58:21.116Z,95462.50
